createdAt,value
2019-03-31T00:01:07.635Z,10.08
2019-03-31T00:03:27.965Z,10.14
2019-03-31T00:05:57.598Z,10.03
2019-03-31T00:08:27.533Z,9.92
2019-03-31T00:11:00.541Z,9.92
2019-03-31T00:13:31.241Z,9.93
2019-03-31T00:16:04.371Z,9.87
2019-03-31T00:18:33.965Z,9.99
2019-03-31T00:21:03.545Z,10.25
2019-03-31T00:23:33.514Z,10.42
2019-03-31T00:26:03.162Z,10.45
2019-03-31T00:28:32.883Z,10.37
2019-03-31T00:31:02.449Z,10.26
2019-03-31T00:33:33.748Z,10.35
2019-03-31T00:36:03.327Z,10.33
2019-03-31T00:38:33.323Z,10.29
2019-03-31T00:41:03.630Z,10.28
2019-03-31T00:43:33.201Z,10.34
2019-03-31T00:46:02.788Z,10.28
2019-03-31T00:48:32.671Z,10.30
2019-03-31T00:51:02.269Z,10.34
2019-03-31T00:53:31.833Z,10.43
2019-03-31T00:56:01.421Z,10.56
2019-03-31T00:58:31.433Z,10.74
2019-03-31T01:01:18.997Z,10.57
2019-03-31T01:03:48.636Z,10.62
2019-03-31T01:06:19.222Z,10.69
2019-03-31T01:08:48.837Z,10.68
2019-03-31T01:11:24.296Z,10.64
2019-03-31T01:13:54.180Z,10.65
2019-03-31T01:16:24.745Z,10.60
2019-03-31T01:18:54.324Z,10.62
2019-03-31T01:21:23.977Z,10.62
2019-03-31T01:23:53.676Z,10.64
2019-03-31T01:26:23.351Z,10.68
2019-03-31T01:28:53.422Z,10.70
2019-03-31T01:31:23.738Z,10.71
2019-03-31T01:33:53.392Z,10.81
2019-03-31T01:36:23.067Z,10.95
2019-03-31T01:38:52.657Z,10.99
2019-03-31T01:41:22.955Z,10.95
2019-03-31T01:43:52.517Z,10.89
2019-03-31T01:46:24.402Z,10.91
2019-03-31T01:48:53.976Z,10.86
2019-03-31T01:51:23.574Z,10.81
2019-03-31T01:53:53.182Z,10.80
2019-03-31T01:56:23.279Z,10.67
2019-03-31T01:58:53.241Z,10.55
2019-03-31T02:01:22.917Z,10.42
2019-03-31T02:03:52.719Z,10.50
2019-03-31T02:06:22.351Z,10.40
2019-03-31T02:08:51.935Z,10.42
2019-03-31T02:11:21.898Z,10.30
2019-03-31T02:13:51.582Z,10.30
2019-03-31T02:16:21.286Z,10.37
2019-03-31T02:18:51.202Z,10.59
2019-03-31T02:21:21.155Z,10.40
2019-03-31T02:23:50.730Z,10.40
2019-03-31T02:26:20.292Z,10.42
2019-03-31T02:28:49.879Z,10.44
2019-03-31T02:31:21.748Z,10.26
2019-03-31T02:33:51.381Z,10.00
2019-03-31T02:36:20.963Z,9.82
2019-03-31T02:38:50.540Z,9.77
2019-03-31T02:41:20.460Z,9.83
2019-03-31T02:43:50.349Z,9.76
2019-03-31T02:46:19.954Z,9.68
2019-03-31T02:48:49.987Z,9.58
2019-03-31T02:51:20.281Z,9.64
2019-03-31T02:53:49.879Z,9.51
2019-03-31T02:56:19.526Z,9.46
2019-03-31T02:58:50.059Z,9.51
2019-03-31T03:01:21.736Z,9.47
2019-03-31T03:03:52.540Z,9.44
2019-03-31T03:06:23.127Z,9.40
2019-03-31T03:08:57.005Z,9.40
2019-03-31T03:11:28.194Z,9.35
2019-03-31T03:13:58.255Z,9.31
2019-03-31T03:16:28.121Z,9.34
2019-03-31T03:18:57.905Z,9.42
2019-03-31T03:21:27.539Z,9.41
2019-03-31T03:23:57.087Z,9.40
2019-03-31T03:26:26.740Z,9.38
2019-03-31T03:28:56.729Z,9.40
2019-03-31T03:31:26.337Z,9.41
2019-03-31T03:33:55.954Z,9.39
2019-03-31T03:36:25.505Z,9.33
2019-03-31T03:38:55.495Z,9.32
2019-03-31T03:41:25.773Z,9.24
2019-03-31T03:44:01.743Z,9.22
2019-03-31T03:46:30.397Z,9.17
2019-03-31T03:49:00.504Z,9.14
2019-03-31T03:51:30.273Z,9.10
2019-03-31T03:53:59.917Z,9.12
2019-03-31T03:56:29.579Z,9.11
2019-03-31T03:58:59.499Z,9.10
2019-03-31T04:01:30.810Z,9.06
2019-03-31T04:04:00.416Z,9.05
2019-03-31T04:06:30.057Z,9.00
2019-03-31T04:08:59.984Z,8.96
2019-03-31T04:11:30.149Z,8.95
2019-03-31T04:13:59.879Z,8.95
2019-03-31T04:16:30.560Z,8.96
2019-03-31T04:19:00.262Z,8.98
2019-03-31T04:21:30.010Z,9.12
2019-03-31T04:24:00.041Z,9.19
2019-03-31T04:26:29.973Z,9.26
2019-03-31T04:28:59.558Z,9.33
2019-03-31T04:31:29.466Z,9.44
2019-03-31T04:33:59.139Z,9.47
2019-03-31T04:36:28.728Z,9.61
2019-03-31T04:39:00.446Z,9.65
2019-03-31T04:41:30.328Z,9.55
2019-03-31T04:44:00.233Z,9.52
2019-03-31T04:46:29.828Z,9.48
2019-03-31T04:48:59.890Z,9.44
2019-03-31T04:51:29.518Z,9.46
2019-03-31T04:53:59.522Z,9.58
2019-03-31T04:56:29.543Z,9.65
2019-03-31T04:58:59.724Z,9.70
2019-03-31T05:01:29.668Z,9.71
2019-03-31T05:04:04.952Z,9.75
2019-03-31T05:06:30.717Z,9.88
2019-03-31T05:09:00.352Z,9.82
2019-03-31T05:11:29.915Z,9.89
2019-03-31T05:13:59.649Z,9.88
2019-03-31T05:16:29.258Z,9.82
2019-03-31T05:18:58.919Z,9.80
2019-03-31T05:21:29.076Z,9.84
2019-03-31T05:23:58.849Z,9.89
2019-03-31T05:26:28.420Z,9.87
2019-03-31T05:29:01.531Z,9.90
2019-03-31T05:31:31.991Z,9.91
2019-03-31T05:34:01.960Z,9.88
2019-03-31T05:36:31.799Z,9.91
2019-03-31T05:39:02.184Z,9.85
2019-03-31T05:41:32.205Z,9.86
2019-03-31T05:44:05.917Z,9.77
2019-03-31T05:46:34.330Z,9.82
2019-03-31T05:49:04.672Z,9.85
2019-03-31T05:51:34.518Z,9.85
2019-03-31T05:54:04.942Z,9.85
2019-03-31T05:56:34.664Z,10.15
2019-03-31T05:59:04.337Z,10.07
2019-03-31T06:01:33.954Z,10.09
2019-03-31T06:04:04.224Z,10.05
2019-03-31T06:06:36.897Z,10.10
2019-03-31T06:09:06.771Z,10.09
2019-03-31T06:11:36.378Z,10.11
2019-03-31T06:14:06.033Z,10.05
2019-03-31T06:16:36.149Z,10.01
2019-03-31T06:19:05.766Z,10.06
2019-03-31T06:21:35.907Z,10.13
2019-03-31T06:24:05.898Z,10.16
2019-03-31T06:26:35.507Z,10.20
2019-03-31T06:29:05.442Z,10.19
2019-03-31T06:31:35.426Z,10.19
2019-03-31T06:34:05.250Z,10.29
2019-03-31T06:36:36.052Z,10.20
2019-03-31T06:39:09.657Z,10.27
2019-03-31T06:41:39.623Z,10.31
2019-03-31T06:44:10.493Z,10.45
2019-03-31T06:46:40.476Z,10.43
2019-03-31T06:49:10.736Z,10.42
2019-03-31T06:51:40.560Z,10.51
2019-03-31T06:54:10.694Z,10.59
2019-03-31T06:56:40.293Z,10.62
2019-03-31T06:59:09.882Z,10.78
2019-03-31T07:01:39.834Z,10.73
2019-03-31T07:04:09.428Z,10.73
2019-03-31T07:06:39.362Z,10.96
2019-03-31T07:09:09.315Z,11.13
2019-03-31T07:11:39.270Z,11.20
2019-03-31T07:14:09.251Z,11.28
2019-03-31T07:16:38.837Z,11.31
2019-03-31T07:19:08.474Z,11.38
2019-03-31T07:21:38.120Z,11.42
2019-03-31T07:24:07.713Z,11.42
2019-03-31T07:26:37.412Z,11.38
2019-03-31T07:29:07.103Z,11.43
2019-03-31T07:31:37.735Z,11.51
2019-03-31T07:34:08.161Z,11.54
2019-03-31T07:36:37.823Z,11.48
2019-03-31T07:39:07.943Z,11.53
2019-03-31T07:41:37.991Z,11.56
2019-03-31T07:44:07.779Z,11.52
2019-03-31T07:46:37.438Z,11.62
2019-03-31T07:49:07.182Z,11.58
2019-03-31T07:51:37.608Z,11.66
2019-03-31T07:54:07.310Z,11.73
2019-03-31T07:56:37.064Z,11.76
2019-03-31T07:59:06.707Z,12.02
2019-03-31T08:01:36.299Z,12.12
2019-03-31T08:04:05.920Z,12.20
2019-03-31T08:06:35.575Z,12.29
2019-03-31T08:09:07.020Z,12.38
2019-03-31T08:11:36.898Z,12.31
2019-03-31T08:14:06.874Z,12.36
2019-03-31T08:16:36.503Z,12.57
2019-03-31T08:19:06.151Z,12.71
2019-03-31T08:21:36.427Z,12.89
2019-03-31T08:24:06.846Z,12.98
2019-03-31T08:26:36.500Z,12.98
2019-03-31T08:29:06.241Z,13.02
2019-03-31T08:31:36.216Z,12.99
2019-03-31T08:34:05.926Z,13.03
2019-03-31T08:36:36.015Z,13.03
2019-03-31T08:39:08.633Z,12.96
2019-03-31T08:41:38.291Z,12.93
2019-03-31T08:44:08.334Z,13.33
2019-03-31T08:46:38.539Z,13.65
2019-03-31T08:49:08.490Z,13.79
2019-03-31T08:51:38.164Z,13.67
2019-03-31T08:54:07.724Z,13.64
2019-03-31T08:56:37.342Z,13.64
2019-03-31T08:59:07.012Z,13.94
2019-03-31T09:01:37.053Z,14.95
2019-03-31T09:04:07.043Z,15.72
2019-03-31T09:06:36.917Z,16.45
2019-03-31T09:09:08.764Z,17.45
2019-03-31T09:11:38.311Z,18.38
2019-03-31T09:14:08.267Z,18.27
2019-03-31T09:16:38.055Z,19.07
2019-03-31T09:19:07.704Z,18.28
2019-03-31T09:21:37.645Z,18.48
2019-03-31T09:24:07.679Z,17.19
2019-03-31T09:26:37.307Z,16.63
2019-03-31T09:29:07.434Z,15.88
2019-03-31T09:31:37.030Z,15.32
2019-03-31T09:34:07.070Z,15.08
2019-03-31T09:36:37.102Z,15.44
2019-03-31T09:39:07.393Z,16.28
2019-03-31T09:41:36.978Z,16.16
2019-03-31T09:44:07.092Z,15.36
2019-03-31T09:46:36.679Z,15.12
2019-03-31T09:49:06.332Z,14.17
2019-03-31T09:51:35.934Z,14.17
2019-03-31T09:54:05.904Z,14.39
2019-03-31T09:56:35.474Z,14.09
2019-03-31T09:59:05.127Z,14.42
2019-03-31T10:01:35.382Z,14.50
2019-03-31T10:04:05.262Z,15.03
2019-03-31T10:06:35.232Z,14.88
2019-03-31T10:09:06.651Z,15.79
2019-03-31T10:11:36.391Z,16.22
2019-03-31T10:14:06.009Z,16.31
2019-03-31T10:16:36.127Z,16.95
2019-03-31T10:19:06.099Z,17.72
2019-03-31T10:21:35.710Z,18.59
2019-03-31T10:24:06.501Z,19.40
2019-03-31T10:26:36.110Z,18.93
2019-03-31T10:29:05.736Z,18.64
2019-03-31T10:31:35.505Z,18.44
2019-03-31T10:34:05.138Z,17.13
2019-03-31T10:36:44.344Z,16.66
2019-03-31T10:39:09.099Z,16.10
2019-03-31T10:41:39.090Z,15.75
2019-03-31T10:44:08.810Z,15.51
2019-03-31T10:46:38.749Z,16.21
2019-03-31T10:49:08.465Z,17.85
2019-03-31T10:51:38.170Z,18.85
2019-03-31T10:54:07.940Z,19.09
2019-03-31T10:56:39.110Z,18.62
2019-03-31T10:59:08.700Z,18.22
2019-03-31T11:01:38.328Z,17.68
2019-03-31T11:04:08.260Z,17.26
2019-03-31T11:06:37.880Z,17.70
2019-03-31T11:09:08.650Z,17.03
2019-03-31T11:11:39.844Z,16.76
2019-03-31T11:14:11.619Z,16.40
2019-03-31T11:16:41.438Z,16.19
2019-03-31T11:19:11.801Z,15.79
2019-03-31T11:21:51.623Z,15.86
2019-03-31T11:24:21.315Z,15.58
2019-03-31T11:26:50.923Z,15.44
2019-03-31T11:29:20.834Z,15.21
2019-03-31T11:31:50.421Z,15.29
2019-03-31T11:34:20.081Z,14.98
2019-03-31T11:36:49.659Z,15.01
2019-03-31T11:39:19.677Z,15.06
2019-03-31T11:41:49.285Z,15.52
2019-03-31T11:44:18.989Z,15.47
2019-03-31T11:46:48.698Z,16.12
2019-03-31T11:49:18.719Z,16.44
2019-03-31T11:51:48.402Z,16.94
2019-03-31T11:54:18.149Z,17.69
2019-03-31T11:56:49.045Z,18.44
2019-03-31T11:59:20.900Z,18.63
2019-03-31T12:01:50.165Z,18.95
2019-03-31T12:04:19.838Z,18.79
2019-03-31T12:06:52.267Z,18.49
2019-03-31T12:09:21.899Z,19.46
2019-03-31T12:11:52.550Z,20.18
2019-03-31T12:14:22.424Z,20.56
2019-03-31T12:16:52.390Z,20.62
2019-03-31T12:19:22.723Z,20.35
2019-03-31T12:21:52.335Z,19.90
2019-03-31T12:24:21.943Z,20.43
2019-03-31T12:26:53.803Z,20.73
2019-03-31T12:29:23.385Z,19.44
2019-03-31T12:31:53.208Z,19.07
2019-03-31T12:34:22.847Z,19.03
2019-03-31T12:36:52.505Z,19.67
2019-03-31T12:39:22.106Z,20.49
2019-03-31T12:41:51.721Z,20.70
2019-03-31T12:44:21.333Z,21.00
2019-03-31T12:46:51.908Z,20.62
2019-03-31T12:49:21.499Z,20.61
2019-03-31T12:51:55.213Z,20.40
2019-03-31T12:54:25.433Z,20.35
2019-03-31T12:56:55.109Z,20.61
2019-03-31T12:59:27.249Z,21.17
2019-03-31T13:01:56.252Z,22.33
2019-03-31T13:04:26.503Z,22.37
2019-03-31T13:06:56.486Z,21.34
2019-03-31T13:09:26.097Z,22.17
2019-03-31T13:11:55.679Z,22.29
2019-03-31T13:14:25.320Z,21.95
2019-03-31T13:16:55.087Z,21.22
2019-03-31T13:19:24.879Z,21.65
2019-03-31T13:21:55.307Z,21.24
2019-03-31T13:24:25.496Z,20.74
2019-03-31T13:26:55.139Z,21.47
2019-03-31T13:29:24.877Z,21.72
2019-03-31T13:31:54.938Z,22.39
2019-03-31T13:34:25.257Z,22.73
2019-03-31T13:36:54.867Z,21.93
2019-03-31T13:39:24.497Z,22.76
2019-03-31T13:41:54.407Z,22.92
2019-03-31T13:44:24.038Z,21.77
2019-03-31T13:46:54.061Z,22.05
2019-03-31T13:49:23.699Z,21.82
2019-03-31T13:51:53.319Z,21.29
2019-03-31T13:54:23.154Z,21.37
2019-03-31T13:56:53.665Z,21.33
2019-03-31T13:59:23.738Z,21.82
2019-03-31T14:01:55.111Z,21.30
2019-03-31T14:04:24.910Z,21.02
2019-03-31T14:06:54.900Z,20.81
2019-03-31T14:09:26.309Z,20.01
2019-03-31T14:11:56.232Z,20.15
2019-03-31T14:14:26.739Z,19.59
2019-03-31T14:16:56.769Z,20.29
2019-03-31T14:19:26.783Z,20.40
2019-03-31T14:21:56.320Z,20.39
2019-03-31T14:24:27.035Z,19.94
2019-03-31T14:26:56.986Z,20.22
2019-03-31T14:29:27.014Z,19.81
2019-03-31T14:31:56.945Z,19.48
2019-03-31T14:34:27.034Z,19.51
2019-03-31T14:36:57.031Z,19.89
2019-03-31T14:39:29.163Z,19.54
2019-03-31T14:41:58.794Z,19.30
2019-03-31T14:44:28.853Z,19.78
2019-03-31T14:46:58.847Z,20.22
2019-03-31T14:49:28.463Z,20.45
2019-03-31T14:52:01.191Z,20.83
2019-03-31T14:54:29.718Z,20.67
2019-03-31T14:56:59.901Z,20.73
2019-03-31T14:59:29.800Z,20.02
2019-03-31T15:01:59.506Z,20.17
2019-03-31T15:04:29.440Z,19.61
2019-03-31T15:06:59.609Z,19.77
2019-03-31T15:09:29.608Z,19.39
2019-03-31T15:11:59.197Z,20.02
2019-03-31T15:14:28.826Z,19.79
2019-03-31T15:16:58.472Z,19.04
2019-03-31T15:19:28.138Z,19.57
2019-03-31T15:21:57.747Z,19.79
2019-03-31T15:24:27.354Z,19.40
2019-03-31T15:26:57.102Z,19.83
2019-03-31T15:29:27.021Z,19.32
2019-03-31T15:31:56.771Z,19.28
2019-03-31T15:34:26.929Z,18.91
2019-03-31T15:36:56.741Z,18.72
2019-03-31T15:39:26.448Z,19.01
2019-03-31T15:41:56.169Z,19.14
2019-03-31T15:44:25.819Z,19.20
2019-03-31T15:46:55.687Z,19.11
2019-03-31T15:49:25.683Z,19.08
2019-03-31T15:51:55.480Z,18.57
2019-03-31T15:54:25.118Z,17.96
2019-03-31T15:56:54.880Z,17.80
2019-03-31T15:59:24.873Z,17.75
2019-03-31T16:01:54.521Z,18.05
2019-03-31T16:04:24.159Z,17.63
2019-03-31T16:06:53.834Z,17.70
2019-03-31T16:09:24.122Z,17.80
2019-03-31T16:11:54.224Z,18.05
2019-03-31T16:14:24.846Z,17.97
2019-03-31T16:16:54.009Z,17.94
2019-03-31T16:19:23.205Z,17.98
2019-03-31T16:21:52.440Z,18.14
2019-03-31T16:24:34.709Z,17.95
2019-03-31T16:27:03.885Z,17.57
2019-03-31T16:29:33.032Z,18.01
2019-03-31T16:32:04.613Z,17.84
2019-03-31T16:34:34.303Z,17.80
2019-03-31T16:37:03.405Z,17.82
2019-03-31T16:39:37.805Z,17.58
2019-03-31T16:42:04.926Z,17.69
2019-03-31T16:44:34.029Z,17.44
2019-03-31T16:47:03.081Z,17.09
2019-03-31T16:49:32.345Z,17.43
2019-03-31T16:52:02.034Z,17.39
2019-03-31T16:54:31.085Z,17.36
2019-03-31T16:57:00.167Z,17.05
2019-03-31T16:59:29.214Z,17.19
2019-03-31T17:01:58.255Z,17.18
2019-03-31T17:04:27.614Z,16.78
2019-03-31T17:06:56.697Z,16.78
2019-03-31T17:09:26.070Z,16.46
2019-03-31T17:11:55.559Z,16.60
2019-03-31T17:14:24.870Z,16.29
2019-03-31T17:16:54.299Z,16.09
2019-03-31T17:19:23.694Z,16.12
2019-03-31T17:21:53.039Z,16.33
2019-03-31T17:24:22.131Z,16.27
2019-03-31T17:26:51.181Z,15.95
2019-03-31T17:29:20.279Z,15.71
2019-03-31T17:31:49.398Z,15.92
2019-03-31T17:34:18.805Z,15.63
2019-03-31T17:36:47.890Z,15.44
2019-03-31T17:39:16.959Z,15.43
2019-03-31T17:41:48.065Z,15.38
2019-03-31T17:44:17.159Z,15.07
2019-03-31T17:46:46.399Z,14.89
2019-03-31T17:49:15.783Z,14.69
2019-03-31T17:51:45.219Z,14.58
2019-03-31T17:54:14.626Z,14.57
2019-03-31T17:56:43.700Z,14.35
2019-03-31T17:59:12.758Z,14.56
2019-03-31T18:01:42.095Z,14.48
2019-03-31T18:04:11.281Z,14.22
2019-03-31T18:06:40.916Z,14.27
2019-03-31T18:09:10.513Z,14.10
2019-03-31T18:11:39.556Z,13.99
2019-03-31T18:14:09.362Z,13.89
2019-03-31T18:16:38.728Z,13.72
2019-03-31T18:19:07.911Z,13.70
2019-03-31T18:21:37.565Z,13.73
2019-03-31T18:24:06.972Z,13.89
2019-03-31T18:26:36.024Z,13.91
2019-03-31T18:29:05.404Z,14.04
2019-03-31T18:31:34.481Z,13.80
2019-03-31T18:34:04.433Z,13.69
2019-03-31T18:36:36.754Z,13.79
2019-03-31T18:39:07.041Z,13.71
2019-03-31T18:41:36.433Z,13.69
2019-03-31T18:44:06.060Z,13.53
2019-03-31T18:46:35.514Z,13.46
2019-03-31T18:49:04.813Z,13.42
2019-03-31T18:51:33.880Z,13.41
2019-03-31T18:54:16.510Z,13.28
2019-03-31T18:57:06.174Z,13.35
2019-03-31T19:00:12.393Z,13.17
2019-03-31T19:02:58.938Z,13.05
2019-03-31T19:05:49.943Z,12.98
2019-03-31T19:08:38.528Z,12.92
2019-03-31T19:11:29.358Z,12.78
2019-03-31T19:14:35.544Z,12.67
2019-03-31T19:17:29.120Z,12.53
2019-03-31T19:20:18.493Z,12.48
2019-03-31T19:23:13.025Z,12.33
2019-03-31T19:26:13.214Z,12.46
2019-03-31T19:29:10.166Z,12.42
2019-03-31T19:31:54.332Z,12.40
2019-03-31T19:34:37.734Z,12.18
2019-03-31T19:37:28.870Z,12.12
2019-03-31T19:40:22.736Z,12.09
2019-03-31T19:43:11.044Z,12.20
2019-03-31T19:45:50.797Z,12.23
2019-03-31T19:48:47.656Z,12.05
2019-03-31T19:51:38.407Z,12.14
2019-03-31T19:54:24.956Z,12.08
2019-03-31T19:57:17.574Z,11.93
2019-03-31T20:00:06.452Z,11.99
2019-03-31T20:02:43.650Z,12.13
2019-03-31T20:05:27.174Z,12.00
2019-03-31T20:08:18.095Z,11.88
2019-03-31T20:11:06.090Z,11.78
2019-03-31T20:14:00.535Z,11.62
2019-03-31T20:17:07.084Z,11.87
2019-03-31T20:20:01.151Z,11.65
2019-03-31T20:22:58.210Z,11.45
2019-03-31T20:25:44.504Z,11.56
2019-03-31T20:28:22.770Z,11.45
2019-03-31T20:30:59.108Z,11.43
2019-03-31T20:33:43.754Z,11.42
2019-03-31T20:36:36.028Z,11.33
2019-03-31T20:39:26.954Z,11.43
2019-03-31T20:42:08.852Z,11.39
2019-03-31T20:44:38.014Z,11.19
2019-03-31T20:47:07.408Z,11.18
2019-03-31T20:49:36.790Z,10.98
2019-03-31T20:52:05.953Z,11.05
2019-03-31T20:54:35.027Z,11.03
2019-03-31T20:57:04.446Z,11.05
2019-03-31T20:59:33.549Z,10.90
2019-03-31T21:02:02.646Z,10.80
2019-03-31T21:04:32.363Z,10.86
2019-03-31T21:07:01.427Z,10.84
2019-03-31T21:09:38.779Z,10.69
2019-03-31T21:12:01.668Z,10.73
2019-03-31T21:14:30.852Z,10.64
2019-03-31T21:16:59.889Z,10.60
2019-03-31T21:19:29.225Z,10.58
2019-03-31T21:21:58.799Z,10.59
2019-03-31T21:24:27.946Z,10.61
2019-03-31T21:26:57.262Z,10.41
2019-03-31T21:29:26.398Z,10.42
2019-03-31T21:31:55.523Z,10.49
2019-03-31T21:34:24.866Z,10.34
2019-03-31T21:36:54.466Z,10.46
2019-03-31T21:39:23.585Z,10.45
2019-03-31T21:41:53.024Z,10.23
2019-03-31T21:44:22.061Z,10.17
2019-03-31T21:46:51.118Z,10.18
2019-03-31T21:49:20.511Z,10.15
2019-03-31T21:51:49.640Z,10.15
2019-03-31T21:54:18.686Z,9.97
2019-03-31T21:56:47.742Z,9.93
2019-03-31T21:59:16.740Z,9.98
2019-03-31T22:01:45.787Z,9.98
2019-03-31T22:04:15.106Z,9.89
2019-03-31T22:06:44.398Z,9.78
2019-03-31T22:09:13.746Z,9.69
2019-03-31T22:11:43.087Z,9.70
2019-03-31T22:14:12.389Z,9.68
2019-03-31T22:16:41.674Z,9.72
2019-03-31T22:19:10.701Z,9.62
2019-03-31T22:21:40.398Z,9.66
2019-03-31T22:24:09.503Z,9.62
2019-03-31T22:26:38.545Z,9.63
2019-03-31T22:29:07.847Z,9.54
2019-03-31T22:31:37.150Z,9.46
2019-03-31T22:34:06.205Z,9.56
2019-03-31T22:36:35.242Z,9.42
2019-03-31T22:39:06.302Z,9.38
2019-03-31T22:41:35.362Z,9.39
2019-03-31T22:44:05.393Z,9.32
2019-03-31T22:46:34.444Z,9.25
2019-03-31T22:49:04.322Z,9.06
2019-03-31T22:51:33.642Z,9.26
2019-03-31T22:54:03.057Z,9.19
2019-03-31T22:56:32.479Z,9.01
2019-03-31T22:59:02.209Z,9.17
2019-03-31T23:01:31.249Z,9.23
2019-03-31T23:04:00.465Z,9.10
2019-03-31T23:06:30.271Z,9.03
2019-03-31T23:08:59.316Z,8.96
2019-03-31T23:11:28.748Z,8.95
2019-03-31T23:13:59.536Z,8.95
2019-03-31T23:16:28.580Z,8.89
2019-03-31T23:18:57.607Z,8.84
2019-03-31T23:21:26.617Z,8.95
2019-03-31T23:23:56.019Z,8.89
2019-03-31T23:26:25.099Z,8.87
2019-03-31T23:28:54.803Z,8.80
2019-03-31T23:31:24.183Z,8.70
2019-03-31T23:33:53.268Z,8.70
2019-03-31T23:36:22.610Z,8.77
2019-03-31T23:38:51.694Z,8.66
2019-03-31T23:41:20.722Z,8.60
2019-03-31T23:43:50.187Z,8.59
2019-03-31T23:46:19.585Z,8.62
2019-03-31T23:48:48.930Z,8.53
2019-03-31T23:51:17.997Z,8.61
2019-03-31T23:53:47.124Z,8.61
2019-03-31T23:56:16.841Z,8.73
2019-03-31T23:58:46.239Z,8.58
